createdAt,value
2022-07-25T00:00:11.929Z,99.90
2022-07-25T00:02:39.078Z,99.90
2022-07-25T00:05:06.599Z,99.90
2022-07-25T00:07:33.538Z,99.90
2022-07-25T00:10:00.249Z,99.90
2022-07-25T00:12:26.959Z,99.90
2022-07-25T00:14:53.706Z,99.90
2022-07-25T00:17:20.386Z,99.90
2022-07-25T00:19:47.014Z,99.90
2022-07-25T00:22:13.654Z,99.90
2022-07-25T00:24:40.265Z,99.90
2022-07-25T00:27:08.285Z,99.90
2022-07-25T00:29:35.979Z,99.90
2022-07-25T00:32:02.812Z,99.90
2022-07-25T00:34:29.572Z,99.90
2022-07-25T00:36:56.231Z,99.90
2022-07-25T00:39:22.898Z,99.90
2022-07-25T00:41:49.988Z,99.90
2022-07-25T00:44:24.143Z,99.90
2022-07-25T00:46:52.044Z,99.90
2022-07-25T00:49:18.998Z,99.90
2022-07-25T00:51:46.080Z,99.90
2022-07-25T00:54:13.231Z,99.90
2022-07-25T00:56:40.798Z,99.90
2022-07-25T00:59:07.747Z,99.90
2022-07-25T01:01:34.632Z,99.90
2022-07-25T01:04:01.727Z,99.90
2022-07-25T01:06:28.483Z,99.90
2022-07-25T01:08:55.670Z,99.90
2022-07-25T01:11:23.101Z,99.90
2022-07-25T01:13:49.796Z,99.90
2022-07-25T01:16:16.646Z,99.90
2022-07-25T01:18:43.423Z,99.90
2022-07-25T01:21:10.587Z,99.90
2022-07-25T01:23:37.374Z,99.90
2022-07-25T01:26:04.441Z,99.90
2022-07-25T01:28:31.137Z,99.90
2022-07-25T01:30:58.354Z,99.90
2022-07-25T01:33:25.039Z,99.90
2022-07-25T01:35:52.033Z,99.90
2022-07-25T01:38:18.945Z,99.90
2022-07-25T01:40:45.781Z,99.90
2022-07-25T01:43:12.726Z,99.90
2022-07-25T01:45:39.541Z,99.90
2022-07-25T01:48:06.498Z,99.90
2022-07-25T01:50:33.191Z,99.90
2022-07-25T01:52:59.880Z,99.90
2022-07-25T01:55:26.523Z,99.90
2022-07-25T01:57:56.067Z,99.90
2022-07-25T02:00:23.110Z,99.90
2022-07-25T02:03:09.752Z,99.90
2022-07-25T02:05:36.512Z,99.90
2022-07-25T02:08:03.306Z,99.90
2022-07-25T02:10:29.969Z,99.90
2022-07-25T02:12:57.158Z,99.90
2022-07-25T02:15:23.807Z,99.90
2022-07-25T02:17:50.481Z,99.90
2022-07-25T02:20:17.121Z,99.90
2022-07-25T02:22:43.783Z,99.90
2022-07-25T02:25:10.578Z,99.90
2022-07-25T02:27:37.184Z,99.90
2022-07-25T02:30:05.363Z,99.90
2022-07-25T02:32:31.996Z,99.90
2022-07-25T02:34:58.624Z,99.90
2022-07-25T02:37:25.352Z,99.90
2022-07-25T02:39:52.023Z,99.90
2022-07-25T02:42:18.628Z,99.90
2022-07-25T02:44:45.298Z,99.90
2022-07-25T02:47:11.985Z,99.90
2022-07-25T02:49:38.615Z,99.90
2022-07-25T02:52:05.321Z,99.90
2022-07-25T02:54:31.928Z,99.90
2022-07-25T02:56:58.523Z,99.90
2022-07-25T02:59:25.143Z,99.90
2022-07-25T03:01:59.052Z,99.90
2022-07-25T03:04:25.938Z,99.90
2022-07-25T03:06:52.663Z,99.90
2022-07-25T03:09:19.415Z,99.90
2022-07-25T03:11:46.150Z,99.90
2022-07-25T03:14:12.803Z,99.90
2022-07-25T03:16:39.539Z,99.90
2022-07-25T03:19:10.240Z,99.90
2022-07-25T03:21:40.214Z,99.90
2022-07-25T03:24:07.369Z,99.90
2022-07-25T03:26:34.446Z,99.90
2022-07-25T03:29:01.111Z,99.90
2022-07-25T03:31:28.556Z,99.90
2022-07-25T03:33:55.358Z,99.90
2022-07-25T03:36:22.352Z,99.90
2022-07-25T03:38:49.081Z,99.90
2022-07-25T03:41:15.805Z,99.90
2022-07-25T03:43:42.430Z,99.90
2022-07-25T03:46:09.155Z,99.90
2022-07-25T03:48:35.862Z,99.90
2022-07-25T03:51:06.895Z,99.90
2022-07-25T03:53:54.270Z,99.90
2022-07-25T03:56:21.067Z,99.90
2022-07-25T03:58:47.700Z,99.90
2022-07-25T04:01:14.407Z,99.90
2022-07-25T04:03:41.083Z,99.90
2022-07-25T04:06:10.467Z,99.90
2022-07-25T04:08:37.069Z,99.90
2022-07-25T04:11:03.773Z,99.90
2022-07-25T04:13:30.376Z,99.90
2022-07-25T04:15:57.006Z,99.90
2022-07-25T04:18:28.592Z,99.90
2022-07-25T04:20:55.423Z,99.90
2022-07-25T04:23:22.279Z,99.90
2022-07-25T04:25:49.105Z,99.90
2022-07-25T04:28:15.831Z,99.90
2022-07-25T04:30:45.326Z,99.90
2022-07-25T04:33:13.371Z,99.90
2022-07-25T04:35:40.447Z,99.90
2022-07-25T04:38:11.763Z,99.90
2022-07-25T04:40:39.010Z,99.90
2022-07-25T04:43:06.020Z,99.90
2022-07-25T04:45:34.721Z,99.90
2022-07-25T04:48:02.094Z,99.90
2022-07-25T04:50:29.455Z,99.90
2022-07-25T04:52:56.232Z,99.90
2022-07-25T04:55:24.702Z,99.90
2022-07-25T04:57:51.620Z,99.90
2022-07-25T05:00:18.548Z,99.90
2022-07-25T05:02:45.327Z,99.90
2022-07-25T05:05:20.783Z,99.90
2022-07-25T05:07:48.587Z,99.90
2022-07-25T05:10:15.268Z,99.90
2022-07-25T05:12:41.937Z,99.90
2022-07-25T05:15:09.526Z,99.90
2022-07-25T05:17:36.246Z,99.90
2022-07-25T05:20:03.033Z,99.90
2022-07-25T05:22:29.755Z,99.90
2022-07-25T05:24:56.456Z,99.90
2022-07-25T05:27:23.311Z,99.90
2022-07-25T05:29:50.035Z,99.90
2022-07-25T05:32:16.694Z,99.90
2022-07-25T05:34:43.357Z,99.90
2022-07-25T05:37:09.990Z,99.90
2022-07-25T05:39:39.673Z,99.90
2022-07-25T05:42:07.808Z,99.90
2022-07-25T05:44:34.803Z,99.90
2022-07-25T05:47:01.500Z,99.90
2022-07-25T05:49:28.350Z,99.90
2022-07-25T05:51:54.978Z,99.90
2022-07-25T05:54:21.614Z,99.90
2022-07-25T05:56:48.312Z,99.90
2022-07-25T05:59:16.105Z,99.90
2022-07-25T06:01:42.806Z,99.90
2022-07-25T06:04:09.942Z,99.90
2022-07-25T06:06:36.907Z,99.90
2022-07-25T06:09:07.801Z,99.90
2022-07-25T06:11:34.827Z,99.90
2022-07-25T06:14:01.537Z,99.90
2022-07-25T06:16:28.686Z,99.90
2022-07-25T06:18:55.437Z,99.90
2022-07-25T06:21:22.096Z,99.90
2022-07-25T06:23:48.715Z,99.90
2022-07-25T06:26:15.366Z,99.90
2022-07-25T06:28:42.024Z,99.90
2022-07-25T06:31:08.871Z,99.90
2022-07-25T06:33:35.617Z,99.90
2022-07-25T06:36:02.235Z,99.90
2022-07-25T06:38:28.914Z,99.90
2022-07-25T06:40:55.613Z,99.90
2022-07-25T06:43:22.341Z,99.90
2022-07-25T06:45:49.839Z,99.90
2022-07-25T06:48:16.933Z,99.90
2022-07-25T06:50:43.880Z,99.90
2022-07-25T06:53:10.635Z,99.90
2022-07-25T06:55:37.614Z,99.90
2022-07-25T06:58:04.572Z,99.90
2022-07-25T07:00:31.374Z,99.90
2022-07-25T07:03:01.384Z,99.90
2022-07-25T07:05:31.650Z,99.90
2022-07-25T07:07:59.500Z,99.90
2022-07-25T07:10:26.832Z,99.90
2022-07-25T07:13:07.897Z,99.90
2022-07-25T07:15:35.326Z,99.90
2022-07-25T07:18:02.310Z,99.90
2022-07-25T07:20:29.662Z,99.90
2022-07-25T07:22:56.555Z,99.90
2022-07-25T07:25:24.536Z,99.90
2022-07-25T07:27:55.243Z,99.90
2022-07-25T07:30:25.937Z,99.90
2022-07-25T07:33:00.340Z,99.90
2022-07-25T07:35:27.467Z,99.90
2022-07-25T07:37:55.336Z,99.90
2022-07-25T07:40:22.556Z,99.90
2022-07-25T07:42:50.613Z,99.90
2022-07-25T07:45:22.946Z,99.90
2022-07-25T07:47:51.657Z,99.90
2022-07-25T07:50:21.095Z,99.90
2022-07-25T07:52:48.896Z,99.90
2022-07-25T07:55:34.331Z,99.90
2022-07-25T07:58:01.738Z,99.90
2022-07-25T08:00:30.946Z,99.90
2022-07-25T08:02:58.816Z,99.90
2022-07-25T08:05:38.725Z,99.90
2022-07-25T08:08:07.231Z,99.90
2022-07-25T08:10:36.489Z,99.90
2022-07-25T08:13:13.263Z,99.90
2022-07-25T08:15:40.948Z,99.90
2022-07-25T08:18:17.573Z,99.90
2022-07-25T08:20:46.112Z,99.90
2022-07-25T08:23:13.544Z,99.90
2022-07-25T08:25:40.449Z,99.90
2022-07-25T08:28:07.576Z,99.90
2022-07-25T08:30:36.569Z,99.90
2022-07-25T08:33:07.780Z,99.90
2022-07-25T08:35:35.018Z,99.90
2022-07-25T08:38:02.910Z,99.90
2022-07-25T08:40:31.435Z,99.90
2022-07-25T08:42:58.901Z,99.90
2022-07-25T08:45:27.921Z,99.90
2022-07-25T08:47:55.658Z,99.90
2022-07-25T08:50:25.495Z,99.90
2022-07-25T08:53:10.036Z,99.90
2022-07-25T08:55:40.070Z,99.90
2022-07-25T08:58:06.842Z,99.90
2022-07-25T09:00:33.773Z,99.90
2022-07-25T09:03:03.090Z,99.90
2022-07-25T09:05:32.110Z,99.90
2022-07-25T09:08:20.056Z,99.90
2022-07-25T09:10:49.607Z,99.90
2022-07-25T09:13:17.877Z,99.90
2022-07-25T09:15:49.521Z,99.90
2022-07-25T09:18:23.456Z,99.90
2022-07-25T09:20:53.315Z,99.90
2022-07-25T09:23:31.980Z,99.90
2022-07-25T09:26:07.910Z,99.90
2022-07-25T09:28:46.939Z,99.90
2022-07-25T09:31:15.452Z,99.90
2022-07-25T09:33:47.928Z,99.90
2022-07-25T09:36:14.807Z,99.90
2022-07-25T09:38:55.584Z,99.90
2022-07-25T09:41:23.266Z,99.90
2022-07-25T09:43:50.429Z,99.90
2022-07-25T09:46:17.180Z,99.90
2022-07-25T09:48:45.345Z,99.90
2022-07-25T09:51:12.247Z,99.90
2022-07-25T09:53:39.882Z,99.90
2022-07-25T09:56:08.454Z,99.90
2022-07-25T09:58:35.227Z,99.90
2022-07-25T10:01:05.944Z,99.90
2022-07-25T10:04:03.519Z,99.90
2022-07-25T10:07:04.153Z,99.90
2022-07-25T10:09:31.952Z,99.90
2022-07-25T10:12:10.653Z,99.90
2022-07-25T10:14:38.590Z,99.90
2022-07-25T10:17:06.321Z,99.90
2022-07-25T10:19:50.803Z,99.90
2022-07-25T10:22:34.332Z,99.90
2022-07-25T10:25:17.754Z,99.90
2022-07-25T10:27:50.706Z,99.90
2022-07-25T10:30:26.150Z,99.90
2022-07-25T10:33:15.003Z,99.90
2022-07-25T10:35:42.441Z,99.90
2022-07-25T10:38:09.617Z,99.90
2022-07-25T10:40:44.241Z,99.90
2022-07-25T10:43:19.508Z,99.90
2022-07-25T10:45:54.279Z,99.90
2022-07-25T10:48:23.463Z,99.90
2022-07-25T10:51:00.500Z,99.90
2022-07-25T10:53:41.137Z,99.90
2022-07-25T10:56:12.848Z,99.90
2022-07-25T10:59:05.884Z,99.90
2022-07-25T11:01:36.458Z,99.90
2022-07-25T11:04:15.575Z,98.90
2022-07-25T11:06:43.180Z,99.30
2022-07-25T11:09:21.626Z,99.30
2022-07-25T11:11:53.584Z,98.90
2022-07-25T11:14:34.250Z,99.50
2022-07-25T11:17:15.327Z,99.30
2022-07-25T11:19:43.792Z,99.60
2022-07-25T11:22:11.556Z,99.80
2022-07-25T11:24:40.902Z,99.20
2022-07-25T11:27:12.161Z,99.00
2022-07-25T11:29:40.431Z,97.50
2022-07-25T11:32:10.080Z,96.50
2022-07-25T11:34:42.904Z,97.30
2022-07-25T11:37:11.450Z,97.00
2022-07-25T11:39:42.072Z,95.90
2022-07-25T11:42:10.157Z,95.80
2022-07-25T11:44:38.412Z,95.30
2022-07-25T11:47:09.002Z,95.00
2022-07-25T11:49:48.588Z,94.40
2022-07-25T11:52:35.951Z,94.20
2022-07-25T11:55:06.912Z,94.20
2022-07-25T11:57:44.851Z,94.50
2022-07-25T12:00:18.929Z,94.90
2022-07-25T12:02:47.750Z,94.30
2022-07-25T12:05:17.322Z,94.50
2022-07-25T12:07:53.024Z,93.80
2022-07-25T12:10:31.344Z,93.80
2022-07-25T12:12:59.679Z,94.80
2022-07-25T12:15:29.969Z,93.10
2022-07-25T12:17:58.190Z,93.90
2022-07-25T12:20:38.440Z,93.50
2022-07-25T12:23:08.946Z,92.30
2022-07-25T12:25:40.198Z,91.90
2022-07-25T12:28:08.223Z,91.80
2022-07-25T12:30:35.108Z,91.60
2022-07-25T12:33:02.054Z,92.00
2022-07-25T12:35:29.208Z,91.60
2022-07-25T12:37:55.846Z,91.30
2022-07-25T12:40:22.660Z,91.80
2022-07-25T12:42:49.940Z,91.70
2022-07-25T12:45:17.885Z,91.60
2022-07-25T12:47:45.792Z,91.90
2022-07-25T12:50:13.641Z,91.20
2022-07-25T12:52:41.636Z,90.30
2022-07-25T12:55:10.969Z,91.10
2022-07-25T12:57:38.231Z,89.90
2022-07-25T13:00:07.730Z,85.50
2022-07-25T13:02:34.532Z,81.40
2022-07-25T13:05:01.400Z,80.10
2022-07-25T13:07:28.157Z,79.40
2022-07-25T13:09:54.824Z,79.80
2022-07-25T13:12:23.528Z,76.90
2022-07-25T13:14:51.077Z,78.10
2022-07-25T13:17:17.856Z,76.60
2022-07-25T13:19:44.678Z,73.50
2022-07-25T13:22:11.355Z,72.40
2022-07-25T13:24:39.236Z,72.40
2022-07-25T13:27:06.815Z,71.80
2022-07-25T13:29:34.544Z,71.90
2022-07-25T13:32:01.874Z,71.00
2022-07-25T13:34:28.702Z,70.00
2022-07-25T13:36:55.380Z,67.60
2022-07-25T13:39:22.481Z,67.10
2022-07-25T13:41:49.634Z,67.80
2022-07-25T13:44:16.691Z,67.80
2022-07-25T13:46:46.353Z,67.50
2022-07-25T13:49:13.229Z,67.40
2022-07-25T13:51:39.955Z,67.70
2022-07-25T13:54:13.021Z,67.60
2022-07-25T13:56:41.418Z,67.60
2022-07-25T13:59:09.234Z,67.40
2022-07-25T14:01:36.323Z,67.40
2022-07-25T14:04:03.087Z,67.00
2022-07-25T14:06:29.806Z,67.40
2022-07-25T14:08:56.433Z,67.20
2022-07-25T14:11:26.016Z,66.30
2022-07-25T14:13:57.052Z,67.20
2022-07-25T14:16:23.900Z,66.80
2022-07-25T14:18:50.804Z,67.40
2022-07-25T14:21:17.446Z,67.90
2022-07-25T14:23:44.271Z,68.10
2022-07-25T14:26:11.326Z,67.80
2022-07-25T14:28:38.069Z,67.80
2022-07-25T14:31:04.887Z,67.50
2022-07-25T14:33:31.664Z,67.50
2022-07-25T14:35:59.303Z,67.20
2022-07-25T14:38:26.132Z,67.30
2022-07-25T14:40:52.807Z,67.60
2022-07-25T14:43:19.538Z,67.40
2022-07-25T14:45:46.259Z,67.20
2022-07-25T14:48:13.084Z,67.30
2022-07-25T14:50:39.892Z,67.50
2022-07-25T14:53:06.751Z,67.80
2022-07-25T14:55:34.206Z,69.00
2022-07-25T14:58:02.503Z,69.80
2022-07-25T15:00:30.200Z,70.40
2022-07-25T15:02:57.312Z,71.00
2022-07-25T15:05:23.962Z,71.40
2022-07-25T15:07:50.917Z,72.50
2022-07-25T15:10:17.641Z,72.00
2022-07-25T15:12:44.273Z,72.20
2022-07-25T15:15:11.433Z,72.80
2022-07-25T15:17:38.827Z,73.20
2022-07-25T15:20:06.188Z,74.80
2022-07-25T15:22:32.897Z,74.60
2022-07-25T15:27:46.178Z,75.40
2022-07-25T15:30:12.994Z,75.80
2022-07-25T15:32:40.156Z,76.10
2022-07-25T15:35:07.357Z,76.50
2022-07-25T15:37:34.093Z,76.70
2022-07-25T15:40:00.882Z,76.50
2022-07-25T15:42:29.470Z,76.50
2022-07-25T15:45:22.285Z,76.40
2022-07-25T15:47:46.298Z,76.10
2022-07-25T15:50:20.408Z,76.90
2022-07-25T15:52:47.328Z,77.20
2022-07-25T15:55:14.175Z,77.40
2022-07-25T15:57:40.985Z,77.80
2022-07-25T16:00:09.434Z,78.20
2022-07-25T16:02:36.184Z,78.30
2022-07-25T16:05:04.217Z,79.30
2022-07-25T16:07:31.349Z,78.80
2022-07-25T16:09:58.939Z,78.70
2022-07-25T16:12:28.659Z,79.00
2022-07-25T16:14:56.294Z,78.70
2022-07-25T16:17:28.151Z,78.50
2022-07-25T16:20:26.672Z,77.50
2022-07-25T16:23:19.184Z,76.90
2022-07-25T16:25:46.362Z,77.10
2022-07-25T16:28:13.459Z,78.10
2022-07-25T16:30:40.240Z,78.60
2022-07-25T16:33:07.027Z,79.30
2022-07-25T16:35:33.994Z,79.80
2022-07-25T16:38:00.780Z,80.40
2022-07-25T16:40:30.979Z,80.70
2022-07-25T16:42:59.344Z,80.40
2022-07-25T16:45:27.029Z,80.30
2022-07-25T16:47:54.122Z,79.10
2022-07-25T16:50:20.930Z,78.80
2022-07-25T16:52:48.491Z,78.30
2022-07-25T16:55:15.314Z,78.30
2022-07-25T16:57:42.209Z,78.20
2022-07-25T17:00:10.055Z,77.40
2022-07-25T17:02:37.468Z,77.60
2022-07-25T17:05:04.834Z,76.60
2022-07-25T17:07:32.144Z,76.90
2022-07-25T17:09:58.829Z,77.30
2022-07-25T17:12:25.838Z,77.50
2022-07-25T17:14:52.783Z,77.50
2022-07-25T17:17:19.912Z,76.90
2022-07-25T17:19:46.993Z,77.30
2022-07-25T17:22:13.884Z,76.90
2022-07-25T17:24:41.970Z,76.40
2022-07-25T17:27:09.308Z,76.30
2022-07-25T17:29:36.717Z,76.30
2022-07-25T17:32:05.950Z,76.50
2022-07-25T17:34:33.238Z,76.50
2022-07-25T17:37:02.772Z,76.30
2022-07-25T17:39:33.874Z,76.90
2022-07-25T17:42:01.675Z,77.60
2022-07-25T17:44:28.452Z,78.40
2022-07-25T17:46:57.193Z,79.00
2022-07-25T17:49:24.077Z,79.40
2022-07-25T17:51:51.099Z,79.50
2022-07-25T17:54:18.603Z,79.80
2022-07-25T17:56:45.524Z,79.90
2022-07-25T17:59:12.589Z,80.20
2022-07-25T18:01:39.990Z,80.10
2022-07-25T18:04:07.266Z,80.20
2022-07-25T18:06:34.729Z,80.20
2022-07-25T18:09:01.466Z,80.10
2022-07-25T18:11:28.115Z,80.20
2022-07-25T18:13:54.894Z,80.20
2022-07-25T18:16:21.789Z,80.60
2022-07-25T18:18:48.612Z,80.90
2022-07-25T18:21:15.290Z,81.50
2022-07-25T18:23:42.112Z,82.10
2022-07-25T18:26:09.112Z,82.50
2022-07-25T18:28:36.331Z,82.80
2022-07-25T18:31:03.046Z,83.20
2022-07-25T18:33:29.744Z,83.70
2022-07-25T18:35:56.404Z,84.00
2022-07-25T18:38:23.118Z,84.40
2022-07-25T18:41:06.524Z,85.10
2022-07-25T18:43:36.524Z,85.80
2022-07-25T18:46:03.720Z,86.40
2022-07-25T18:48:33.333Z,87.70
2022-07-25T18:51:00.046Z,87.40
2022-07-25T18:53:26.666Z,87.70
2022-07-25T18:55:53.882Z,88.30
2022-07-25T18:58:20.635Z,88.90
2022-07-25T19:00:47.282Z,89.50
2022-07-25T19:03:14.001Z,90.10
2022-07-25T19:05:41.497Z,90.40
2022-07-25T19:08:08.304Z,90.50
2022-07-25T19:10:35.108Z,90.70
2022-07-25T19:13:02.303Z,90.90
2022-07-25T19:15:29.173Z,91.20
2022-07-25T19:17:56.415Z,91.40
2022-07-25T19:20:23.360Z,91.60
2022-07-25T19:22:50.194Z,91.80
2022-07-25T19:25:16.945Z,92.00
2022-07-25T19:27:43.695Z,92.20
2022-07-25T19:30:16.840Z,92.50
2022-07-25T19:32:44.393Z,92.70
2022-07-25T19:35:11.276Z,92.90
2022-07-25T19:37:38.092Z,93.10
2022-07-25T19:40:06.447Z,93.30
2022-07-25T19:42:33.480Z,93.50
2022-07-25T19:45:00.129Z,93.70
2022-07-25T19:47:27.451Z,93.90
2022-07-25T19:49:54.467Z,94.10
2022-07-25T19:52:21.302Z,94.40
2022-07-25T19:54:48.013Z,94.60
2022-07-25T19:57:14.859Z,94.90
2022-07-25T19:59:43.151Z,95.20
2022-07-25T20:02:11.368Z,95.60
2022-07-25T20:04:38.594Z,95.70
2022-07-25T20:07:06.491Z,95.90
2022-07-25T20:09:34.776Z,95.70
2022-07-25T20:12:03.235Z,96.00
2022-07-25T20:14:29.937Z,96.30
2022-07-25T20:16:57.992Z,96.40
2022-07-25T20:19:25.281Z,96.60
2022-07-25T20:21:52.443Z,96.90
2022-07-25T20:24:21.680Z,97.00
2022-07-25T20:26:48.803Z,97.20
2022-07-25T20:29:15.976Z,97.30
2022-07-25T20:31:44.861Z,97.50
2022-07-25T20:34:15.174Z,97.20
2022-07-25T20:36:42.324Z,97.50
2022-07-25T20:39:09.852Z,97.40
2022-07-25T20:41:37.851Z,96.60
2022-07-25T20:44:05.922Z,96.20
2022-07-25T20:46:35.771Z,96.10
2022-07-25T20:49:08.621Z,96.00
2022-07-25T20:51:37.504Z,95.70
2022-07-25T20:54:05.061Z,95.60
2022-07-25T20:56:32.399Z,95.50
2022-07-25T20:58:59.277Z,95.60
2022-07-25T21:01:26.118Z,95.60
2022-07-25T21:03:52.844Z,95.50
2022-07-25T21:06:19.745Z,95.50
2022-07-25T21:08:54.457Z,95.30
2022-07-25T21:11:22.388Z,95.50
2022-07-25T21:13:49.552Z,95.50
2022-07-25T21:16:16.340Z,95.50
2022-07-25T21:18:43.007Z,95.50
2022-07-25T21:21:12.403Z,95.70
2022-07-25T21:23:39.212Z,96.00
2022-07-25T21:26:06.028Z,96.20
2022-07-25T21:28:33.986Z,96.40
2022-07-25T21:31:01.050Z,96.70
2022-07-25T21:33:27.721Z,96.90
2022-07-25T21:35:55.321Z,97.20
2022-07-25T21:38:26.728Z,97.50
2022-07-25T21:40:55.743Z,97.90
2022-07-25T21:43:22.621Z,98.30
2022-07-25T21:45:49.338Z,99.10
2022-07-25T21:48:16.027Z,99.70
2022-07-25T21:50:48.757Z,99.90
2022-07-25T21:53:17.285Z,99.90
2022-07-25T21:55:43.983Z,99.90
2022-07-25T21:58:10.715Z,99.90
2022-07-25T22:00:41.801Z,99.90
2022-07-25T22:03:12.394Z,99.90
2022-07-25T22:05:39.365Z,99.90
2022-07-25T22:08:06.240Z,99.90
2022-07-25T22:10:33.816Z,99.90
2022-07-25T22:13:01.062Z,99.90
2022-07-25T22:15:27.702Z,99.90
2022-07-25T22:17:54.429Z,99.90
2022-07-25T22:20:21.111Z,99.90
2022-07-25T22:22:48.640Z,99.90
2022-07-25T22:25:16.211Z,99.90
2022-07-25T22:27:43.764Z,99.90
2022-07-25T22:30:17.980Z,99.90
2022-07-25T22:32:46.055Z,99.90
2022-07-25T22:35:12.955Z,99.90
2022-07-25T22:37:39.761Z,99.90
2022-07-25T22:40:07.162Z,99.90
2022-07-25T22:42:33.858Z,99.90
2022-07-25T22:45:00.544Z,99.90
2022-07-25T22:47:27.781Z,99.90
2022-07-25T22:49:54.420Z,99.90
2022-07-25T22:52:21.055Z,99.90
2022-07-25T22:54:47.725Z,99.90
2022-07-25T22:57:14.397Z,99.90
2022-07-25T22:59:41.290Z,99.90
2022-07-25T23:02:08.158Z,99.90
2022-07-25T23:04:35.198Z,99.90
2022-07-25T23:07:02.223Z,99.90
2022-07-25T23:09:33.785Z,99.90
2022-07-25T23:12:04.475Z,99.90
2022-07-25T23:14:31.357Z,99.90
2022-07-25T23:17:16.492Z,99.90
2022-07-25T23:19:47.692Z,99.90
2022-07-25T23:22:14.817Z,99.90
2022-07-25T23:24:41.986Z,99.90
2022-07-25T23:27:08.866Z,99.90
2022-07-25T23:29:35.548Z,99.90
2022-07-25T23:32:02.717Z,99.90
2022-07-25T23:34:29.502Z,99.90
2022-07-25T23:36:56.273Z,99.90
2022-07-25T23:39:23.206Z,99.90
2022-07-25T23:41:50.008Z,99.90
2022-07-25T23:44:16.695Z,99.90
2022-07-25T23:46:43.910Z,99.90
2022-07-25T23:49:12.065Z,99.90
2022-07-25T23:51:39.409Z,99.90
2022-07-25T23:54:06.134Z,99.90
2022-07-25T23:56:32.941Z,99.90
2022-07-25T23:58:59.592Z,99.90
